Terminal Aerodrome Forecast
Issued by NWS

Home | Current Version | Previous Version | Text Only | Print | Product List | Glossary On
Versions: 1 2 3 4 5 6 7 8 9 10 11 12 13 14 15 16
000
FTUS45 KGJT 260547
TAFRIL
TAF
KRIL 260547Z 2606/2706 04003KT P6SM BKN150
     FM261900 26007KT P6SM VCTS BKN150CB
     FM270200 16007KT P6SM BKN150=

USA.gov is the U.S. government's official web portal to all federal, state and local government web resources and services.